sensor_id;sensor_type;location;lat;lon;timestamp;pressure;altitude;pressure_sealevel;temperature;humidity
6038;BME280;3047;42.600;23.470;2023-04-01T00:01:07;92157.06;;;13.26;56.69
6038;BME280;3047;42.600;23.470;2023-04-01T00:03:34;92202.22;;;13.51;55.73
6038;BME280;3047;42.600;23.470;2023-04-01T00:06:01;92185.84;;;13.25;57.04
6038;BME280;3047;42.600;23.470;2023-04-01T00:08:28;92200.22;;;13.24;57.94
6038;BME280;3047;42.600;23.470;2023-04-01T00:10:55;92200.78;;;13.14;58.90
6038;BME280;3047;42.600;23.470;2023-04-01T00:13:24;92202.28;;;13.00;58.87
6038;BME280;3047;42.600;23.470;2023-04-01T00:15:53;92205.88;;;12.96;59.04
6038;BME280;3047;42.600;23.470;2023-04-01T00:18:20;92192.06;;;12.86;60.68
6038;BME280;3047;42.600;23.470;2023-04-01T00:20:48;92197.22;;;12.84;56.70
6038;BME280;3047;42.600;23.470;2023-04-01T00:23:15;92194.28;;;12.92;52.31
6038;BME280;3047;42.600;23.470;2023-04-01T00:25:43;92201.66;;;12.97;52.13
6038;BME280;3047;42.600;23.470;2023-04-01T00:28:10;92204.66;;;12.87;55.62
6038;BME280;3047;42.600;23.470;2023-04-01T00:30:37;92199.81;;;12.83;57.63
6038;BME280;3047;42.600;23.470;2023-04-01T00:33:06;92190.19;;;12.56;59.32
6038;BME280;3047;42.600;23.470;2023-04-01T00:35:33;92200.38;;;12.72;60.34
6038;BME280;3047;42.600;23.470;2023-04-01T00:38:00;92193.59;;;12.55;61.23
6038;BME280;3047;42.600;23.470;2023-04-01T00:40:29;92133.94;;;12.17;58.94
6038;BME280;3047;42.600;23.470;2023-04-01T00:42:56;92197.84;;;12.55;59.70
6038;BME280;3047;42.600;23.470;2023-04-01T00:45:30;92194.97;;;12.45;61.16
6038;BME280;3047;42.600;23.470;2023-04-01T00:47:59;92196.19;;;12.21;62.37
6038;BME280;3047;42.600;23.470;2023-04-01T00:50:30;92190.47;;;12.17;62.57
6038;BME280;3047;42.600;23.470;2023-04-01T00:52:58;92178.78;;;12.32;59.99
6038;BME280;3047;42.600;23.470;2023-04-01T00:55:26;92128.16;;;11.97;61.95
6038;BME280;3047;42.600;23.470;2023-04-01T00:57:55;92184.59;;;12.17;63.71
6038;BME280;3047;42.600;23.470;2023-04-01T01:00:23;92178.97;;;12.27;61.00
6038;BME280;3047;42.600;23.470;2023-04-01T01:02:51;92183.84;;;12.32;61.90
6038;BME280;3047;42.600;23.470;2023-04-01T01:05:21;92171.34;;;12.11;62.24
6038;BME280;3047;42.600;23.470;2023-04-01T01:07:58;92141.94;;;11.92;61.92
6038;BME280;3047;42.600;23.470;2023-04-01T01:10:31;92171.53;;;12.07;61.92
6038;BME280;3047;42.600;23.470;2023-04-01T01:13:05;92125.97;;;11.72;63.11
6038;BME280;3047;42.600;23.470;2023-04-01T01:15:38;92165.22;;;11.98;62.40
6038;BME280;3047;42.600;23.470;2023-04-01T01:18:13;92157.34;;;12.04;62.50
6038;BME280;3047;42.600;23.470;2023-04-01T01:21:12;92159.44;;;11.96;61.78
6038;BME280;3047;42.600;23.470;2023-04-01T01:24:24;92108.25;;;11.72;61.71
6038;BME280;3047;42.600;23.470;2023-04-01T01:27:04;92116.59;;;11.74;62.11
6038;BME280;3047;42.600;23.470;2023-04-01T01:29:42;92138.38;;;11.96;61.77
6038;BME280;3047;42.600;23.470;2023-04-01T01:32:19;92125.53;;;11.64;62.70
6038;BME280;3047;42.600;23.470;2023-04-01T01:34:53;92150.16;;;11.78;62.17
6038;BME280;3047;42.600;23.470;2023-04-01T01:37:25;92066.72;;;11.24;62.52
6038;BME280;3047;42.600;23.470;2023-04-01T01:39:56;92140.13;;;11.76;62.25
6038;BME280;3047;42.600;23.470;2023-04-01T01:42:25;92129.66;;;11.84;61.95
6038;BME280;3047;42.600;23.470;2023-04-01T01:44:55;92129.44;;;11.88;61.30
6038;BME280;3047;42.600;23.470;2023-04-01T01:47:25;92117.94;;;11.81;62.38
6038;BME280;3047;42.600;23.470;2023-04-01T01:49:53;92099.31;;;11.82;62.15
6038;BME280;3047;42.600;23.470;2023-04-01T01:52:23;92097.47;;;11.69;62.98
6038;BME280;3047;42.600;23.470;2023-04-01T01:54:50;92101.63;;;11.52;64.21
6038;BME280;3047;42.600;23.470;2023-04-01T01:57:20;92093.00;;;11.56;62.21
6038;BME280;3047;42.600;23.470;2023-04-01T01:59:51;92071.97;;;11.56;65.20
6038;BME280;3047;42.600;23.470;2023-04-01T02:02:19;92099.78;;;11.56;65.02
6038;BME280;3047;42.600;23.470;2023-04-01T02:04:47;92091.28;;;11.57;62.05
6038;BME280;3047;42.600;23.470;2023-04-01T02:07:20;92084.88;;;11.50;63.89
6038;BME280;3047;42.600;23.470;2023-04-01T02:09:58;92067.06;;;11.35;63.20
6038;BME280;3047;42.600;23.470;2023-04-01T02:12:27;92090.41;;;11.41;63.49
6038;BME280;3047;42.600;23.470;2023-04-01T02:14:57;92089.53;;;11.59;63.07
6038;BME280;3047;42.600;23.470;2023-04-01T02:17:29;92072.25;;;11.50;63.22
6038;BME280;3047;42.600;23.470;2023-04-01T02:19:58;92078.50;;;11.60;62.00
6038;BME280;3047;42.600;23.470;2023-04-01T02:22:28;92087.28;;;11.53;62.82
6038;BME280;3047;42.600;23.470;2023-04-01T02:25:03;92041.00;;;11.33;59.71
6038;BME280;3047;42.600;23.470;2023-04-01T02:27:31;92068.75;;;11.70;57.88
6038;BME280;3047;42.600;23.470;2023-04-01T02:29:58;92067.66;;;11.75;56.80
6038;BME280;3047;42.600;23.470;2023-04-01T02:32:25;92065.34;;;11.88;54.95
6038;BME280;3047;42.600;23.470;2023-04-01T02:34:54;92035.25;;;11.82;53.31
6038;BME280;3047;42.600;23.470;2023-04-01T02:37:21;92061.41;;;12.33;51.18
6038;BME280;3047;42.600;23.470;2023-04-01T02:39:48;92067.97;;;12.53;50.71
6038;BME280;3047;42.600;23.470;2023-04-01T02:42:16;92056.94;;;12.70;49.89
6038;BME280;3047;42.600;23.470;2023-04-01T02:44:42;92061.69;;;12.60;50.40
6038;BME280;3047;42.600;23.470;2023-04-01T02:47:09;92068.63;;;12.72;49.28
6038;BME280;3047;42.600;23.470;2023-04-01T02:49:36;92048.09;;;12.61;47.95
6038;BME280;3047;42.600;23.470;2023-04-01T02:52:03;92008.28;;;12.47;46.84
6038;BME280;3047;42.600;23.470;2023-04-01T02:54:29;92069.00;;;12.96;47.46
6038;BME280;3047;42.600;23.470;2023-04-01T02:56:56;92079.66;;;13.03;47.85
6038;BME280;3047;42.600;23.470;2023-04-01T02:59:24;92087.00;;;13.07;48.43
6038;BME280;3047;42.600;23.470;2023-04-01T03:01:51;92078.19;;;13.15;45.12
6038;BME280;3047;42.600;23.470;2023-04-01T03:04:17;92087.25;;;13.19;45.56
6038;BME280;3047;42.600;23.470;2023-04-01T03:06:44;92083.59;;;13.24;52.54
6038;BME280;3047;42.600;23.470;2023-04-01T03:09:11;92065.59;;;12.97;54.41
6038;BME280;3047;42.600;23.470;2023-04-01T03:11:38;92088.00;;;13.05;54.70
6038;BME280;3047;42.600;23.470;2023-04-01T03:14:06;92099.28;;;12.99;56.01
6038;BME280;3047;42.600;23.470;2023-04-01T03:16:34;92095.38;;;12.94;56.69
6038;BME280;3047;42.600;23.470;2023-04-01T03:19:00;92085.72;;;12.84;58.65
6038;BME280;3047;42.600;23.470;2023-04-01T03:21:27;92109.66;;;12.79;58.31
6038;BME280;3047;42.600;23.470;2023-04-01T03:23:54;92116.59;;;12.75;57.71
6038;BME280;3047;42.600;23.470;2023-04-01T03:26:21;92104.91;;;12.73;56.13
6038;BME280;3047;42.600;23.470;2023-04-01T03:28:48;92102.19;;;12.76;56.71
6038;BME280;3047;42.600;23.470;2023-04-01T03:31:14;92069.59;;;12.70;57.13
6038;BME280;3047;42.600;23.470;2023-04-01T03:33:43;92049.00;;;12.44;57.05
6038;BME280;3047;42.600;23.470;2023-04-01T03:36:10;92095.91;;;12.67;56.06
6038;BME280;3047;42.600;23.470;2023-04-01T03:38:38;92095.59;;;12.73;57.07
6038;BME280;3047;42.600;23.470;2023-04-01T03:41:05;92059.59;;;12.51;57.56
6038;BME280;3047;42.600;23.470;2023-04-01T03:43:32;92075.31;;;12.57;55.85
6038;BME280;3047;42.600;23.470;2023-04-01T03:45:59;92104.00;;;12.74;56.63
6038;BME280;3047;42.600;23.470;2023-04-01T03:48:26;92094.84;;;12.71;57.18
6038;BME280;3047;42.600;23.470;2023-04-01T03:50:54;92095.34;;;12.62;57.64
6038;BME280;3047;42.600;23.470;2023-04-01T03:53:20;92080.13;;;12.46;58.03
6038;BME280;3047;42.600;23.470;2023-04-01T03:55:47;92038.97;;;12.09;60.28
6038;BME280;3047;42.600;23.470;2023-04-01T03:58:16;92088.06;;;12.56;59.36
6038;BME280;3047;42.600;23.470;2023-04-01T04:00:43;92088.78;;;12.58;59.06
6038;BME280;3047;42.600;23.470;2023-04-01T04:03:09;92090.25;;;12.46;61.39
6038;BME280;3047;42.600;23.470;2023-04-01T04:05:36;92075.38;;;12.40;61.08
6038;BME280;3047;42.600;23.470;2023-04-01T04:08:05;92052.56;;;12.24;61.07
6038;BME280;3047;42.600;23.470;2023-04-01T04:10:31;92049.53;;;12.33;59.75
6038;BME280;3047;42.600;23.470;2023-04-01T04:12:58;92027.25;;;12.24;60.04
6038;BME280;3047;42.600;23.470;2023-04-01T04:15:25;92024.44;;;12.13;60.41
6038;BME280;3047;42.600;23.470;2023-04-01T04:17:51;92015.53;;;12.06;60.89
6038;BME280;3047;42.600;23.470;2023-04-01T04:20:18;92019.63;;;12.08;62.09
6038;BME280;3047;42.600;23.470;2023-04-01T04:22:45;92021.91;;;12.13;60.21
6038;BME280;3047;42.600;23.470;2023-04-01T04:25:13;92016.50;;;12.03;62.96
6038;BME280;3047;42.600;23.470;2023-04-01T04:27:40;92009.31;;;11.96;63.09
6038;BME280;3047;42.600;23.470;2023-04-01T04:30:07;91997.63;;;11.93;62.51
6038;BME280;3047;42.600;23.470;2023-04-01T04:32:34;91988.97;;;11.97;61.48
6038;BME280;3047;42.600;23.470;2023-04-01T04:35:01;91982.84;;;12.01;60.77
6038;BME280;3047;42.600;23.470;2023-04-01T04:37:28;91964.44;;;11.99;61.65
6038;BME280;3047;42.600;23.470;2023-04-01T04:39:55;91976.03;;;12.03;61.09
6038;BME280;3047;42.600;23.470;2023-04-01T04:42:23;91964.09;;;12.05;60.36
6038;BME280;3047;42.600;23.470;2023-04-01T04:44:50;91963.81;;;11.94;61.80
6038;BME280;3047;42.600;23.470;2023-04-01T04:47:16;91954.13;;;12.02;62.05
6038;BME280;3047;42.600;23.470;2023-04-01T04:49:43;91931.84;;;12.09;58.86
6038;BME280;3047;42.600;23.470;2023-04-01T04:52:10;91918.03;;;12.15;58.21
6038;BME280;3047;42.600;23.470;2023-04-01T04:54:36;91925.72;;;12.13;62.18
6038;BME280;3047;42.600;23.470;2023-04-01T04:57:03;91922.38;;;12.12;62.01
6038;BME280;3047;42.600;23.470;2023-04-01T04:59:31;91932.00;;;12.06;61.56
6038;BME280;3047;42.600;23.470;2023-04-01T05:01:58;91912.41;;;12.09;61.24
6038;BME280;3047;42.600;23.470;2023-04-01T05:04:25;91920.81;;;12.10;62.22
6038;BME280;3047;42.600;23.470;2023-04-01T05:06:51;91916.66;;;12.09;62.70
6038;BME280;3047;42.600;23.470;2023-04-01T05:09:18;91918.13;;;12.13;62.39
6038;BME280;3047;42.600;23.470;2023-04-01T05:11:45;91894.69;;;12.09;63.06
6038;BME280;3047;42.600;23.470;2023-04-01T05:14:13;91912.66;;;12.21;61.98
6038;BME280;3047;42.600;23.470;2023-04-01T05:16:41;91907.19;;;12.12;64.75
6038;BME280;3047;42.600;23.470;2023-04-01T05:19:08;91906.28;;;12.13;66.12
6038;BME280;3047;42.600;23.470;2023-04-01T05:21:34;91901.88;;;12.17;64.54
6038;BME280;3047;42.600;23.470;2023-04-01T05:24:01;91908.09;;;12.11;64.25
6038;BME280;3047;42.600;23.470;2023-04-01T05:26:27;91870.28;;;11.93;64.80
6038;BME280;3047;42.600;23.470;2023-04-01T05:28:54;91893.72;;;12.12;64.50
6038;BME280;3047;42.600;23.470;2023-04-01T05:31:21;91893.88;;;12.09;63.45
6038;BME280;3047;42.600;23.470;2023-04-01T05:33:50;91886.38;;;12.07;65.66
6038;BME280;3047;42.600;23.470;2023-04-01T05:36:17;91869.88;;;12.00;64.38
6038;BME280;3047;42.600;23.470;2023-04-01T05:38:43;91857.53;;;11.94;64.89
6038;BME280;3047;42.600;23.470;2023-04-01T05:41:11;91867.75;;;11.93;64.05
6038;BME280;3047;42.600;23.470;2023-04-01T05:43:38;91856.19;;;11.88;64.14
6038;BME280;3047;42.600;23.470;2023-04-01T05:46:05;91865.28;;;12.07;64.15
6038;BME280;3047;42.600;23.470;2023-04-01T05:48:32;91818.59;;;12.12;63.04
6038;BME280;3047;42.600;23.470;2023-04-01T05:51:01;91856.72;;;12.55;59.22
6038;BME280;3047;42.600;23.470;2023-04-01T05:53:29;91852.69;;;12.97;54.36
6038;BME280;3047;42.600;23.470;2023-04-01T05:55:56;91848.09;;;13.18;53.54
6038;BME280;3047;42.600;23.470;2023-04-01T05:58:23;91851.78;;;13.43;51.77
6038;BME280;3047;42.600;23.470;2023-04-01T06:00:50;91846.56;;;13.73;55.22
6038;BME280;3047;42.600;23.470;2023-04-01T06:03:16;91866.69;;;13.90;55.99
6038;BME280;3047;42.600;23.470;2023-04-01T06:05:43;91846.34;;;14.04;57.91
6038;BME280;3047;42.600;23.470;2023-04-01T06:08:13;91850.72;;;14.29;57.32
6038;BME280;3047;42.600;23.470;2023-04-01T06:10:53;91836.53;;;14.40;59.18
6038;BME280;3047;42.600;23.470;2023-04-01T06:13:34;91855.53;;;14.61;59.08
6038;BME280;3047;42.600;23.470;2023-04-01T06:16:10;91862.56;;;14.70;59.99
6038;BME280;3047;42.600;23.470;2023-04-01T06:19:02;91819.59;;;14.26;59.76
6038;BME280;3047;42.600;23.470;2023-04-01T06:21:41;91801.03;;;13.98;58.75
6038;BME280;3047;42.600;23.470;2023-04-01T06:24:30;91854.84;;;14.45;54.26
6038;BME280;3047;42.600;23.470;2023-04-01T06:27:05;91837.34;;;14.40;49.03
6038;BME280;3047;42.600;23.470;2023-04-01T06:29:49;91870.16;;;14.57;49.04
6038;BME280;3047;42.600;23.470;2023-04-01T06:32:39;91839.28;;;14.64;45.47
6038;BME280;3047;42.600;23.470;2023-04-01T06:35:20;91875.34;;;14.96;43.84
6038;BME280;3047;42.600;23.470;2023-04-01T06:38:10;91833.16;;;14.66;43.80
6038;BME280;3047;42.600;23.470;2023-04-01T06:41:01;91860.72;;;15.12;42.75
6038;BME280;3047;42.600;23.470;2023-04-01T06:43:40;91849.81;;;15.10;43.41
6038;BME280;3047;42.600;23.470;2023-04-01T06:46:17;91849.75;;;15.24;43.34
6038;BME280;3047;42.600;23.470;2023-04-01T06:48:58;91860.13;;;15.21;43.27
6038;BME280;3047;42.600;23.470;2023-04-01T06:51:34;91848.31;;;15.20;43.07
6038;BME280;3047;42.600;23.470;2023-04-01T06:54:09;91852.28;;;15.24;43.23
6038;BME280;3047;42.600;23.470;2023-04-01T06:56:41;91830.00;;;15.15;42.33
6038;BME280;3047;42.600;23.470;2023-04-01T06:59:12;91860.84;;;15.49;42.49
6038;BME280;3047;42.600;23.470;2023-04-01T07:01:45;91869.59;;;15.45;42.48
6038;BME280;3047;42.600;23.470;2023-04-01T07:04:15;91857.47;;;15.48;42.12
6038;BME280;3047;42.600;23.470;2023-04-01T07:06:46;91847.09;;;15.39;42.61
6038;BME280;3047;42.600;23.470;2023-04-01T07:09:18;91839.44;;;15.39;42.59
6038;BME280;3047;42.600;23.470;2023-04-01T07:11:47;91839.75;;;15.47;43.12
6038;BME280;3047;42.600;23.470;2023-04-01T07:14:19;91845.75;;;15.46;42.36
6038;BME280;3047;42.600;23.470;2023-04-01T07:16:49;91836.53;;;15.32;42.51
6038;BME280;3047;42.600;23.470;2023-04-01T07:19:21;91827.78;;;15.23;43.42
6038;BME280;3047;42.600;23.470;2023-04-01T07:21:54;91848.00;;;15.38;43.24
6038;BME280;3047;42.600;23.470;2023-04-01T07:24:25;91845.03;;;15.31;43.70
6038;BME280;3047;42.600;23.470;2023-04-01T07:26:55;91829.47;;;15.23;44.52
6038;BME280;3047;42.600;23.470;2023-04-01T07:29:23;91819.41;;;15.08;45.63
6038;BME280;3047;42.600;23.470;2023-04-01T07:32:15;91817.38;;;15.01;46.28
6038;BME280;3047;42.600;23.470;2023-04-01T07:35:07;91753.84;;;14.48;47.54
6038;BME280;3047;42.600;23.470;2023-04-01T07:37:43;91825.31;;;14.96;47.35
6038;BME280;3047;42.600;23.470;2023-04-01T07:40:20;91840.56;;;14.96;48.60
6038;BME280;3047;42.600;23.470;2023-04-01T07:43:01;91821.53;;;14.89;47.85
6038;BME280;3047;42.600;23.470;2023-04-01T07:45:35;91826.41;;;14.92;48.61
6038;BME280;3047;42.600;23.470;2023-04-01T07:48:12;91787.44;;;14.66;49.44
6038;BME280;3047;42.600;23.470;2023-04-01T07:50:50;91827.03;;;14.96;47.44
6038;BME280;3047;42.600;23.470;2023-04-01T07:53:24;91761.81;;;14.69;46.77
6038;BME280;3047;42.600;23.470;2023-04-01T07:56:00;91797.34;;;14.96;47.00
6038;BME280;3047;42.600;23.470;2023-04-01T07:58:34;91801.50;;;15.10;45.55
6038;BME280;3047;42.600;23.470;2023-04-01T08:01:09;91743.53;;;14.64;45.56
6038;BME280;3047;42.600;23.470;2023-04-01T08:03:48;91798.53;;;14.91;47.03
6038;BME280;3047;42.600;23.470;2023-04-01T08:06:22;91787.78;;;14.87;47.65
6038;BME280;3047;42.600;23.470;2023-04-01T08:08:58;91795.00;;;14.93;47.82
6038;BME280;3047;42.600;23.470;2023-04-01T08:11:39;91761.22;;;14.66;47.20
6038;BME280;3047;42.600;23.470;2023-04-01T08:14:17;91802.00;;;15.02;46.14
6038;BME280;3047;42.600;23.470;2023-04-01T08:16:55;91788.91;;;14.96;46.95
6038;BME280;3047;42.600;23.470;2023-04-01T08:19:34;91807.09;;;15.02;48.58
6038;BME280;3047;42.600;23.470;2023-04-01T08:22:09;91693.53;;;14.52;49.09
6038;BME280;3047;42.600;23.470;2023-04-01T08:24:41;91789.50;;;15.12;47.92
6038;BME280;3047;42.600;23.470;2023-04-01T08:27:13;91788.28;;;15.18;51.05
6038;BME280;3047;42.600;23.470;2023-04-01T08:29:48;91744.94;;;15.06;51.01
6038;BME280;3047;42.600;23.470;2023-04-01T08:32:21;91768.84;;;15.29;50.68
6038;BME280;3047;42.600;23.470;2023-04-01T08:35:02;91765.38;;;15.30;51.57
6038;BME280;3047;42.600;23.470;2023-04-01T08:37:36;91746.25;;;15.38;54.06
6038;BME280;3047;42.600;23.470;2023-04-01T08:40:20;91733.31;;;15.41;53.50
6038;BME280;3047;42.600;23.470;2023-04-01T08:43:00;91736.56;;;15.43;53.15
6038;BME280;3047;42.600;23.470;2023-04-01T08:45:54;91730.25;;;15.48;54.50
6038;BME280;3047;42.600;23.470;2023-04-01T08:48:53;91709.31;;;15.32;52.08
6038;BME280;3047;42.600;23.470;2023-04-01T08:54:46;91712.19;;;15.64;51.71
6038;BME280;3047;42.600;23.470;2023-04-01T08:57:29;91706.34;;;15.75;51.35
6038;BME280;3047;42.600;23.470;2023-04-01T09:00:13;91707.94;;;15.89;51.74
6038;BME280;3047;42.600;23.470;2023-04-01T09:12:26;91703.38;;;16.29;46.83
6038;BME280;3047;42.600;23.470;2023-04-01T09:18:12;91687.56;;;16.24;45.55
6038;BME280;3047;42.600;23.470;2023-04-01T09:20:47;91673.44;;;16.09;44.73
6038;BME280;3047;42.600;23.470;2023-04-01T09:23:40;91707.34;;;16.09;48.00
6038;BME280;3047;42.600;23.470;2023-04-01T09:26:26;91708.91;;;15.99;51.27
6038;BME280;3047;42.600;23.470;2023-04-01T09:29:05;91673.06;;;15.78;51.50
6038;BME280;3047;42.600;23.470;2023-04-01T09:31:48;91697.78;;;16.00;52.48
6038;BME280;3047;42.600;23.470;2023-04-01T09:34:35;91691.00;;;15.76;54.56
6038;BME280;3047;42.600;23.470;2023-04-01T09:37:19;91692.56;;;15.66;54.72
6038;BME280;3047;42.600;23.470;2023-04-01T09:40:02;91628.00;;;15.30;54.36
6038;BME280;3047;42.600;23.470;2023-04-01T09:42:43;91687.63;;;15.76;52.86
6038;BME280;3047;42.600;23.470;2023-04-01T09:45:21;91689.34;;;15.75;53.27
6038;BME280;3047;42.600;23.470;2023-04-01T09:48:14;91689.69;;;15.71;54.71
6038;BME280;3047;42.600;23.470;2023-04-01T09:50:51;91687.13;;;15.71;53.78
6038;BME280;3047;42.600;23.470;2023-04-01T09:53:29;91679.72;;;15.68;52.64
6038;BME280;3047;42.600;23.470;2023-04-01T09:56:26;91672.78;;;15.70;52.56
6038;BME280;3047;42.600;23.470;2023-04-01T10:05:55;91650.22;;;15.52;54.12
6038;BME280;3047;42.600;23.470;2023-04-01T10:08:51;91659.16;;;15.58;56.50
6038;BME280;3047;42.600;23.470;2023-04-01T10:15:15;91653.13;;;15.59;51.64
6038;BME280;3047;42.600;23.470;2023-04-01T10:18:21;91645.50;;;15.59;51.67
6038;BME280;3047;42.600;23.470;2023-04-01T10:21:16;91642.38;;;15.55;52.73
6038;BME280;3047;42.600;23.470;2023-04-01T10:24:00;91636.47;;;15.55;56.05
6038;BME280;3047;42.600;23.470;2023-04-01T10:29:54;91630.22;;;15.59;55.38
6038;BME280;3047;42.600;23.470;2023-04-01T10:32:51;91618.44;;;15.58;56.61
6038;BME280;3047;42.600;23.470;2023-04-01T10:38:58;91609.53;;;15.64;54.08
6038;BME280;3047;42.600;23.470;2023-04-01T10:41:57;91575.72;;;15.50;53.73
6038;BME280;3047;42.600;23.470;2023-04-01T10:44:56;91604.31;;;15.54;59.54
6038;BME280;3047;42.600;23.470;2023-04-01T10:48:13;91586.72;;;15.51;58.39
6038;BME280;3047;42.600;23.470;2023-04-01T10:51:17;91589.00;;;15.67;53.56
6038;BME280;3047;42.600;23.470;2023-04-01T10:54:17;91588.50;;;15.62;54.00
6038;BME280;3047;42.600;23.470;2023-04-01T10:56:53;91573.50;;;15.46;59.67
6038;BME280;3047;42.600;23.470;2023-04-01T10:59:52;91575.66;;;15.63;55.09
6038;BME280;3047;42.600;23.470;2023-04-01T11:05:59;91571.78;;;15.70;47.72
6038;BME280;3047;42.600;23.470;2023-04-01T11:12:24;91570.63;;;15.50;53.75
6038;BME280;3047;42.600;23.470;2023-04-01T11:24:45;91549.94;;;15.68;46.68
6038;BME280;3047;42.600;23.470;2023-04-01T11:27:34;91545.84;;;15.65;47.11
6038;BME280;3047;42.600;23.470;2023-04-01T11:30:25;91550.88;;;15.78;46.46
6038;BME280;3047;42.600;23.470;2023-04-01T11:33:01;91544.84;;;15.79;45.74
6038;BME280;3047;42.600;23.470;2023-04-01T11:36:11;91529.00;;;15.87;45.94
6038;BME280;3047;42.600;23.470;2023-04-01T11:38:56;91540.72;;;15.89;45.07
6038;BME280;3047;42.600;23.470;2023-04-01T11:41:32;91577.19;;;16.01;46.10
6038;BME280;3047;42.600;23.470;2023-04-01T11:44:14;91573.50;;;16.05;45.23
6038;BME280;3047;42.600;23.470;2023-04-01T11:46:52;91588.91;;;16.15;45.06
6038;BME280;3047;42.600;23.470;2023-04-01T11:49:36;91607.41;;;16.05;45.53
6038;BME280;3047;42.600;23.470;2023-04-01T11:52:15;91616.41;;;15.98;47.88
6038;BME280;3047;42.600;23.470;2023-04-01T11:55:06;91636.94;;;15.73;53.74
6038;BME280;3047;42.600;23.470;2023-04-01T11:57:50;91714.00;;;15.62;63.83
6038;BME280;3047;42.600;23.470;2023-04-01T12:00:44;91741.38;;;15.22;69.66
6038;BME280;3047;42.600;23.470;2023-04-01T12:03:28;91786.63;;;14.66;74.22
6038;BME280;3047;42.600;23.470;2023-04-01T12:06:03;91782.44;;;14.25;80.90
6038;BME280;3047;42.600;23.470;2023-04-01T12:08:40;91767.78;;;13.89;85.39
6038;BME280;3047;42.600;23.470;2023-04-01T12:11:16;91806.78;;;13.88;86.19
6038;BME280;3047;42.600;23.470;2023-04-01T12:13:50;91799.00;;;13.76;88.98
6038;BME280;3047;42.600;23.470;2023-04-01T12:19:18;91808.81;;;13.40;94.55
6038;BME280;3047;42.600;23.470;2023-04-01T12:21:54;91796.41;;;13.06;98.29
6038;BME280;3047;42.600;23.470;2023-04-01T12:24:45;91811.50;;;13.08;98.07
6038;BME280;3047;42.600;23.470;2023-04-01T12:27:45;91778.63;;;12.78;97.55
6038;BME280;3047;42.600;23.470;2023-04-01T12:30:39;91808.78;;;12.82;99.74
6038;BME280;3047;42.600;23.470;2023-04-01T12:36:16;91797.25;;;12.62;100.00
6038;BME280;3047;42.600;23.470;2023-04-01T12:38:55;91772.19;;;12.58;100.00
6038;BME280;3047;42.600;23.470;2023-04-01T12:41:31;91770.56;;;12.57;100.00
6038;BME280;3047;42.600;23.470;2023-04-01T12:44:15;91793.56;;;12.82;100.00
6038;BME280;3047;42.600;23.470;2023-04-01T12:49:56;91809.41;;;12.86;100.00
6038;BME280;3047;42.600;23.470;2023-04-01T12:52:42;91807.59;;;12.88;100.00
6038;BME280;3047;42.600;23.470;2023-04-01T12:55:37;91799.75;;;12.93;100.00
6038;BME280;3047;42.600;23.470;2023-04-01T13:01:19;91801.44;;;12.92;100.00
6038;BME280;3047;42.600;23.470;2023-04-01T13:04:03;91805.97;;;12.87;100.00
6038;BME280;3047;42.600;23.470;2023-04-01T13:06:45;91792.97;;;12.93;100.00
6038;BME280;3047;42.600;23.470;2023-04-01T13:09:34;91792.94;;;12.79;100.00
6038;BME280;3047;42.600;23.470;2023-04-01T13:12:28;91776.81;;;12.80;100.00
6038;BME280;3047;42.600;23.470;2023-04-01T13:15:17;91788.41;;;12.84;100.00
6038;BME280;3047;42.600;23.470;2023-04-01T13:17:53;91780.16;;;12.66;100.00
6038;BME280;3047;42.600;23.470;2023-04-01T13:20:36;91782.31;;;12.58;100.00
6038;BME280;3047;42.600;23.470;2023-04-01T13:23:14;91773.53;;;12.49;100.00
6038;BME280;3047;42.600;23.470;2023-04-01T13:25:50;91736.06;;;12.54;100.00
6038;BME280;3047;42.600;23.470;2023-04-01T13:28:24;91715.16;;;12.36;100.00
6038;BME280;3047;42.600;23.470;2023-04-01T13:30:59;91703.78;;;12.44;100.00
6038;BME280;3047;42.600;23.470;2023-04-01T13:33:37;91687.13;;;12.25;100.00
6038;BME280;3047;42.600;23.470;2023-04-01T13:36:16;91702.06;;;12.44;100.00
6038;BME280;3047;42.600;23.470;2023-04-01T13:39:07;91689.78;;;12.52;100.00
6038;BME280;3047;42.600;23.470;2023-04-01T13:41:49;91677.38;;;12.62;100.00
6038;BME280;3047;42.600;23.470;2023-04-01T13:44:21;91605.56;;;12.34;100.00
6038;BME280;3047;42.600;23.470;2023-04-01T13:47:04;91660.66;;;12.74;86.51
6038;BME280;3047;42.600;23.470;2023-04-01T13:50:19;91674.31;;;12.85;90.64
6038;BME280;3047;42.600;23.470;2023-04-01T13:53:05;91672.41;;;12.75;97.30
6038;BME280;3047;42.600;23.470;2023-04-01T13:55:54;91685.16;;;12.73;84.67
6038;BME280;3047;42.600;23.470;2023-04-01T14:01:41;91688.22;;;12.78;100.00
6038;BME280;3047;42.600;23.470;2023-04-01T14:04:34;91667.78;;;12.81;100.00
6038;BME280;3047;42.600;23.470;2023-04-01T14:07:21;91656.94;;;12.51;100.00
6038;BME280;3047;42.600;23.470;2023-04-01T14:10:05;91576.16;;;11.89;100.00
6038;BME280;3047;42.600;23.470;2023-04-01T14:12:39;91633.75;;;12.14;100.00
6038;BME280;3047;42.600;23.470;2023-04-01T14:15:21;91618.25;;;11.90;100.00
6038;BME280;3047;42.600;23.470;2023-04-01T14:18:11;91621.25;;;11.97;100.00
6038;BME280;3047;42.600;23.470;2023-04-01T14:20:40;91628.03;;;11.96;100.00
6038;BME280;3047;42.600;23.470;2023-04-01T14:23:27;91620.28;;;11.99;100.00
6038;BME280;3047;42.600;23.470;2023-04-01T14:26:13;91618.19;;;11.92;100.00
6038;BME280;3047;42.600;23.470;2023-04-01T14:28:51;91659.44;;;12.08;100.00
6038;BME280;3047;42.600;23.470;2023-04-01T14:31:39;91627.44;;;12.21;100.00
6038;BME280;3047;42.600;23.470;2023-04-01T14:34:29;91626.06;;;12.01;100.00
6038;BME280;3047;42.600;23.470;2023-04-01T14:37:07;91619.97;;;11.90;100.00
6038;BME280;3047;42.600;23.470;2023-04-01T14:40:13;91644.63;;;12.16;100.00
6038;BME280;3047;42.600;23.470;2023-04-01T14:43:04;91581.63;;;11.81;100.00
6038;BME280;3047;42.600;23.470;2023-04-01T14:45:55;91617.94;;;12.10;100.00
6038;BME280;3047;42.600;23.470;2023-04-01T14:48:32;91566.81;;;11.75;100.00
6038;BME280;3047;42.600;23.470;2023-04-01T14:51:09;91606.09;;;11.97;100.00
6038;BME280;3047;42.600;23.470;2023-04-01T14:53:40;91594.25;;;11.67;100.00
6038;BME280;3047;42.600;23.470;2023-04-01T14:56:12;91642.16;;;12.00;100.00
6038;BME280;3047;42.600;23.470;2023-04-01T14:58:43;91635.19;;;12.04;100.00
6038;BME280;3047;42.600;23.470;2023-04-01T15:01:25;91646.25;;;12.46;86.76